Flight Track Log - Related Links

Times and Time Zones

All times are in EDT time to prevent confusion due to time zone crossing. See the HAL36 flight status page for this flight to view local times or setup timezone preferences in your user account.

Time Position Orientation Groundspeed Altitude Reporting Facility
EDT Latitude Longitude Course Direction KTS MPH feet Rate Location/Type
Fri 10:15:03 PM 21.2490 -157.8810 154° Southeast 241 277 3,400  Level FlightAware ADS-B
Fri 10:15:58 PM 21.2090 -157.8340 132° Southeast 254 292 6,200 2,379 Climbing FlightAware ADS-B
Fri 10:16:59 PM 21.2080 -157.7590 91° East 269 310 8,000 3,182 Climbing FlightAware ADS-B
Fri 10:17:04 PM 21.2080 -157.7460 90° East 275 316 9,700 3,600 Climbing FlightAware ADS-B
Fri 10:17:54 PM 21.2210 -157.6790 78° East 318 366 11,300 1,835 Climbing FlightAware ADS-B
Fri 10:18:29 PM 21.2400 -157.6260 69° East 349 402 12,300 2,000 Climbing FlightAware ADS-B
Fri 10:19:09 PM 21.2650 -157.5540 70° East 375 432 13,800 2,386 Climbing FlightAware ADS-B
Fri 10:19:57 PM 21.2960 -157.4670 69° East 393 452 15,800 2,571 Climbing FlightAware ADS-B
Fri 10:20:40 PM 21.3240 -157.3870 69° East 399 459 17,700 2,169 Climbing FlightAware ADS-B
Fri 10:21:20 PM 21.3510 -157.3120 69° East 424 488 18,800 1,313 Climbing FlightAware ADS-B
Fri 10:22:16 PM 21.3890 -157.2170 67° East 431 496 19,800 513 Climbing FlightAware ADS-B
Fri 10:23:17 PM 21.4310 -157.1150 66° East 431 496 19,800  Level FlightAware ADS-B
Fri 10:23:54 PM 21.4560 -157.0540 66° East 431 496 19,800  Level FlightAware ADS-B
Fri 10:24:42 PM 21.4890 -156.9740 66° East 431 496 19,800  Level FlightAware ADS-B
Fri 10:25:18 PM 21.5140 -156.9140 66° East 431 496 19,800 6,312 Level FlightAware ADS-B
Fri 10:25:59 PM 21.6500 -156.7667 66° East 470 541 27,900 5,881 Climbing Honolulu Center
Fri 10:26:59 PM 21.7333 -156.6500 52° Northeast 480 552 29,700 1,650 Climbing Honolulu Center
Fri 10:27:59 PM 21.8000 -156.5333 58° Northeast 470 541 31,200 1,700 Climbing Honolulu Center
Fri 10:28:59 PM 21.8833 -156.4167 52° Northeast 480 552 33,100 1,600 Climbing Honolulu Center
Fri 10:29:59 PM 21.9500 -156.3000 58° Northeast 470 541 34,400 1,289 Climbing Honolulu Center
Fri 10:31:00 PM 22.0333 -156.1833 52° Northeast 480 552 35,700 1,140 Climbing Honolulu Center
Fri 10:32:00 PM 22.1000 -156.0667 58° Northeast 480 552 36,700 650 Climbing Honolulu Center
Fri 10:33:00 PM 22.1833 -155.9500 52° Northeast 480 552 37,000 149 Climbing Honolulu Center
Fri 10:34:01 PM 22.2500 -155.8333 58° Northeast 480 552 37,000  Level Honolulu Center
Fri 10:35:01 PM 22.3333 -155.7167 52° Northeast 480 552 37,000  Level Honolulu Center
Fri 10:36:01 PM 22.4000 -155.6000 58° Northeast 480 552 37,000  Level Honolulu Center
Fri 10:37:02 PM 22.4833 -155.4667 56° Northeast 470 541 37,000  Level Honolulu Center
Fri 10:38:02 PM 22.5500 -155.3500 58° Northeast 470 541 37,000  Level Honolulu Center
Fri 10:39:03 PM 22.6333 -155.2333 52° Northeast 480 552 37,000  Level Honolulu Center
Fri 10:40:03 PM 22.7000 -155.1167 58° Northeast 480 552 37,000  Level Honolulu Center
Fri 10:41:03 PM 22.7833 -155.0000 52° Northeast 480 552 37,000  Level Honolulu Center
Fri 10:42:04 PM 22.8500 -154.8667 61° Northeast 480 552 37,000  Level Honolulu Center
Fri 10:43:04 PM 22.9333 -154.7500 52° Northeast 480 552 37,000  Level Honolulu Center
Fri 10:45:00 PM 23.0751 -154.5247 57° Northeast  Level FlightAware Approximate
Fri 10:52:00 PM 23.5686 -153.6926 57° Northeast  Level FlightAware Approximate
Fri 10:53:00 PM 23.6388 -153.5732 57° Northeast  Level FlightAware Approximate
Fri 10:54:00 PM 23.7088 -153.4537 57° Northeast  Level FlightAware Approximate
Fri 10:55:00 PM 23.7805 -153.3362 42° Northeast  Level FlightAware Approximate
Fri 10:56:00 PM 23.8525 -153.2181 57° Northeast  Level FlightAware Approximate
Fri 10:56:01 PM 23.7833 -153.3667 57° Northeast 484 557 37,000  Level Oakland Oceanic (ODAPS)
Fri 10:57:00 PM 23.9237 -153.0992 57° Northeast  Level FlightAware Approximate
Fri 10:57:00 PM 23.8960 -153.2150 57° Northeast 480 552 37,000  Level ACARS Aircraft Datalink
Fri 11:00:00 PM 24.0580 -152.8227 66° East  Level Estimated
Fri 11:01:00 PM 24.1118 -152.6917 66° East  Level Estimated
Fri 11:02:00 PM 24.3020 -152.4915 57° Northeast 484 557 37,000  Level FlightAware Transoceanic
Fri 11:02:39 PM 24.3500 -152.4000 57° Northeast 486 559 37,000  Level Oakland Oceanic (ODAPS)
Fri 11:03:00 PM 24.3757 -152.3659 57° Northeast 484 557 37,000  Level FlightAware Transoceanic
Fri 11:04:00 PM 24.4493 -152.2401 57° Northeast 484 557 37,000  Level FlightAware Transoceanic
Fri 11:05:00 PM 24.5228 -152.1142 57° Northeast 484 557 37,000  Level FlightAware Transoceanic
Fri 11:06:00 PM 24.5962 -151.9881 57° Northeast 484 557 37,000  Level FlightAware Transoceanic
Fri 11:07:00 PM 24.6695 -151.8620 57° Northeast 484 557 37,000  Level FlightAware Transoceanic
Fri 11:08:00 PM 24.7426 -151.7356 58° Northeast 484 557 37,000  Level FlightAware Transoceanic
Fri 11:09:00 PM 24.8550 -151.5327 58° Northeast 486 559 37,000  Level FlightAware Transoceanic
Fri 11:10:00 PM 24.9268 -151.4082 58° Northeast 486 559 37,000  Level FlightAware Transoceanic
Fri 11:11:00 PM 24.9984 -151.2836 58° Northeast 486 559 37,000  Level FlightAware Transoceanic
Fri 11:12:00 PM 25.0699 -151.1588 58° Northeast 486 559 37,000  Level FlightAware Transoceanic
Fri 11:13:00 PM 25.1414 -151.0339 58° Northeast 486 559 37,000  Level FlightAware Transoceanic
Fri 11:14:00 PM 25.2127 -150.9088 58° Northeast 486 559 37,000  Level FlightAware Transoceanic
Fri 11:15:00 PM 25.2839 -150.7836 58° Northeast 486 559 37,000  Level FlightAware Transoceanic
Fri 11:16:00 PM 25.3550 -150.6583 58° Northeast 486 559 37,000  Level FlightAware Transoceanic
Fri 11:16:30 PM 25.3500 -150.6833 58° Northeast 485 558 37,000  Level Oakland Oceanic (ODAPS)
Fri 11:17:00 PM 25.4260 -150.5328 58° Northeast 486 559 37,000  Level FlightAware Transoceanic
Fri 11:18:00 PM 25.4969 -150.4071 58° Northeast 486 559 37,000  Level FlightAware Transoceanic
Fri 11:19:00 PM 25.5677 -150.2813 58° Northeast 486 559 37,000  Level FlightAware Transoceanic
Fri 11:20:00 PM 25.6384 -150.1554 58° Northeast 486 559 37,000  Level FlightAware Transoceanic
Fri 11:21:00 PM 25.7090 -150.0293 58° Northeast 486 559 37,000  Level FlightAware Transoceanic
Fri 11:22:00 PM 25.7756 -149.9226 58° Northeast 485 558 37,000  Level FlightAware Transoceanic
Fri 11:23:00 PM 25.8462 -149.7953 58° Northeast 485 558 37,000  Level FlightAware Transoceanic
Fri 11:24:00 PM 25.9166 -149.6679 58° Northeast 485 558 37,000  Level FlightAware Transoceanic
Fri 11:25:00 PM 25.9870 -149.5402 59° Northeast 485 558 37,000  Level FlightAware Transoceanic
Fri 11:26:00 PM 26.0572 -149.4125 59° Northeast 485 558 37,000  Level FlightAware Transoceanic
Fri 11:27:00 PM 26.1273 -149.2845 59° Northeast 485 558 37,000  Level FlightAware Transoceanic
Fri 11:28:00 PM 26.1973 -149.1565 59° Northeast 485 558 37,000  Level FlightAware Transoceanic
Fri 11:29:00 PM 26.2672 -149.0282 59° Northeast 485 558 37,000  Level FlightAware Transoceanic
Fri 11:30:00 PM 26.3370 -148.8999 59° Northeast 485 558 37,000  Level FlightAware Transoceanic
Fri 11:30:23 PM 26.3333 -148.9167 59° Northeast 485 558 37,000  Level Oakland Oceanic (ODAPS)
Fri 11:31:00 PM 26.4066 -148.7713 59° Northeast 485 558 37,000  Level FlightAware Transoceanic
Fri 11:32:00 PM 26.4761 -148.6426 59° Northeast 485 558 37,000  Level FlightAware Transoceanic
Fri 11:33:00 PM 26.5456 -148.5138 59° Northeast 485 558 37,000  Level FlightAware Transoceanic
Fri 11:34:00 PM 26.6149 -148.3848 59° Northeast 485 558 37,000  Level FlightAware Transoceanic
Fri 11:35:00 PM 26.6841 -148.2556 59° Northeast 485 558 37,000  Level FlightAware Transoceanic
Fri 11:36:00 PM 26.7512 -148.1354 59° Northeast 485 558 37,000  Level FlightAware Transoceanic
Fri 11:37:00 PM 26.8205 -148.0046 59° Northeast 485 558 37,000  Level FlightAware Transoceanic
Fri 11:38:00 PM 26.8896 -147.8737 59° Northeast 485 558 37,000  Level FlightAware Transoceanic
Fri 11:39:00 PM 26.9586 -147.7426 59° Northeast 485 558 37,000  Level FlightAware Transoceanic
Fri 11:40:00 PM 27.0275 -147.6114 60° Northeast 485 558 37,000  Level FlightAware Transoceanic
Fri 11:41:00 PM 27.0962 -147.4800 60° Northeast 485 558 37,000  Level FlightAware Transoceanic
Fri 11:42:00 PM 27.1648 -147.3484 60° Northeast 485 558 37,000  Level FlightAware Transoceanic
Fri 11:43:00 PM 27.2333 -147.2167 64° Northeast 485 558 37,000  Level FlightAware Transoceanic
Fri 11:43:21 PM 27.2333 -147.2167 64° Northeast 497 572 37,000  Level Oakland Oceanic (ODAPS)
Fri 11:44:00 PM 27.2946 -147.0749 64° Northeast 485 558 37,000  Level FlightAware Transoceanic
Fri 11:44:00 PM 27.3050 -147.1070 64° Northeast 492 566 37,000  Level ACARS Aircraft Datalink
Fri 11:44:08 PM 27.2833 -147.1000 64° Northeast 500 575 37,000  Level Oakland Oceanic (ODAPS)
Fri 11:47:00 PM 27.4739 -146.7069 64° Northeast  Level FlightAware Approximate
Fri 11:48:00 PM 27.5299 -146.5733 65° Northeast  Level FlightAware Approximate
Fri 11:49:00 PM 27.5913 -146.3817 64° Northeast 497 572 37,000  Level FlightAware Transoceanic
Fri 11:50:00 PM 27.6418 -146.2615 64° Northeast 500 575 37,000  Level FlightAware Transoceanic
Fri 11:51:00 PM 27.7011 -146.1212 65° Northeast 500 575 37,000  Level FlightAware Transoceanic
Fri 11:52:00 PM 27.7602 -145.9807 65° Northeast 500 575 37,000  Level FlightAware Transoceanic
Fri 11:53:00 PM 27.8192 -145.8402 65° Northeast 500 575 37,000  Level FlightAware Transoceanic
Fri 11:54:00 PM 27.8780 -145.6994 65° Northeast 500 575 37,000  Level FlightAware Transoceanic
Fri 11:55:00 PM 27.9367 -145.5585 65° Northeast 500 575 37,000  Level FlightAware Transoceanic
Fri 11:56:00 PM 27.9953 -145.4175 65° Northeast 500 575 37,000  Level FlightAware Transoceanic
Fri 11:57:00 PM 28.0537 -145.2763 65° Northeast 500 575 37,000  Level FlightAware Transoceanic
Fri 11:58:00 PM 28.1119 -145.1349 65° Northeast 500 575 37,000  Level FlightAware Transoceanic
Fri 11:58:01 PM 28.1000 -145.1667 65° Northeast 499 574 37,000  Level Oakland Oceanic (ODAPS)
Fri 11:59:00 PM 28.1700 -144.9934 65° Northeast 500 575 37,000  Level FlightAware Transoceanic
Sat 12:00:00 AM 28.2280 -144.8517 65° Northeast 500 575 37,000  Level FlightAware Transoceanic
Sat 12:01:00 AM 28.2858 -144.7099 65° Northeast 500 575 37,000  Level FlightAware Transoceanic
Sat 12:02:00 AM 28.3435 -144.5680 65° Northeast 500 575 37,000  Level FlightAware Transoceanic
Sat 12:03:00 AM 28.4010 -144.4258 65° Northeast 500 575 37,000  Level FlightAware Transoceanic
Sat 12:04:00 AM 28.4488 -144.3097 65° Northeast 499 574 37,000  Level FlightAware Transoceanic
Sat 12:05:00 AM 28.5064 -144.1663 65° Northeast 499 574 37,000  Level FlightAware Transoceanic
Sat 12:06:00 AM 28.5639 -144.0228 66° East 499 574 37,000  Level FlightAware Transoceanic
Sat 12:07:00 AM 28.6212 -143.8791 66° East 499 574 37,000  Level FlightAware Transoceanic
Sat 12:08:00 AM 28.6784 -143.7353 66° East 499 574 37,000  Level FlightAware Transoceanic
Sat 12:09:00 AM 28.7354 -143.5913 66° East 499 574 37,000  Level FlightAware Transoceanic
Sat 12:10:00 AM 28.7922 -143.4471 66° East 499 574 37,000  Level FlightAware Transoceanic
Sat 12:11:00 AM 28.8489 -143.3028 66° East 499 574 37,000  Level FlightAware Transoceanic
Sat 12:12:00 AM 28.9055 -143.1583 66° East 499 574 37,000  Level FlightAware Transoceanic
Sat 12:12:00 AM 28.9000 -143.1833 66° East 505 581 37,000  Level Oakland Oceanic (ODAPS)
Sat 12:13:00 AM 28.9619 -143.0137 66° East 499 574 37,000  Level FlightAware Transoceanic
Sat 12:14:00 AM 29.0181 -142.8689 66° East 499 574 37,000  Level FlightAware Transoceanic
Sat 12:15:00 AM 29.0742 -142.7240 66° East 499 574 37,000  Level FlightAware Transoceanic
Sat 12:16:00 AM 29.1301 -142.5788 66° East 499 574 37,000  Level FlightAware Transoceanic
Sat 12:17:00 AM 29.1859 -142.4336 66° East 499 574 37,000  Level FlightAware Transoceanic
Sat 12:18:00 AM 29.2379 -142.3054 66° East 505 581 37,000  Level FlightAware Transoceanic
Sat 12:19:00 AM 29.2936 -142.1585 67° East 505 581 37,000  Level FlightAware Transoceanic
Sat 12:20:00 AM 29.3492 -142.0114 67° East 505 581 37,000  Level FlightAware Transoceanic
Sat 12:21:00 AM 29.4047 -141.8642 67° East 505 581 37,000  Level FlightAware Transoceanic
Sat 12:22:00 AM 29.4599 -141.7169 67° East 505 581 37,000  Level FlightAware Transoceanic
Sat 12:23:00 AM 29.5150 -141.5693 67° East 505 581 37,000  Level FlightAware Transoceanic
Sat 12:24:00 AM 29.5700 -141.4216 67° East 505 581 37,000  Level FlightAware Transoceanic
Sat 12:25:00 AM 29.6248 -141.2738 67° East 505 581 37,000  Level FlightAware Transoceanic
Sat 12:25:45 AM 29.6833 -141.1167 67° East 506 582 37,000  Level Oakland Oceanic (ODAPS)
Sat 12:26:00 AM 29.6794 -141.1258 67° East 505 581 37,000  Level FlightAware Transoceanic
Sat 12:27:00 AM 29.7338 -140.9776 67° East 505 581 37,000  Level FlightAware Transoceanic
Sat 12:28:00 AM 29.7881 -140.8293 67° East 505 581 37,000  Level FlightAware Transoceanic
Sat 12:29:00 AM 29.8423 -140.6808 67° East 505 581 37,000  Level FlightAware Transoceanic
Sat 12:30:00 AM 29.8962 -140.5322 67° East 505 581 37,000  Level FlightAware Transoceanic
Sat 12:30:49 AM 29.9500 -140.3833 69° East 505 581 37,000  Level Oakland Oceanic (ODAPS)
Sat 12:31:00 AM 29.9500 -140.3833 69° East 506 582 37,000  Level FlightAware Transoceanic
Sat 12:31:00 AM 29.9810 -140.3410 69° East 510 587 37,000  Level ACARS Aircraft Datalink
Sat 12:33:00 AM 30.0718 -140.0568 70° East  Level FlightAware Approximate
Sat 12:34:00 AM 30.1169 -139.9146 70° East  Level FlightAware Approximate
Sat 12:35:00 AM 30.1619 -139.7722 70° East  Level FlightAware Approximate
Sat 12:36:00 AM 30.2068 -139.6296 70° East  Level FlightAware Approximate
Sat 12:37:00 AM 30.2507 -139.4590 70° East 505 581 37,000  Level FlightAware Transoceanic
Sat 12:38:00 AM 30.3002 -139.3044 70° East 505 581 37,000  Level FlightAware Transoceanic
Sat 12:39:00 AM 30.3496 -139.1496 70° East 505 581 37,000  Level FlightAware Transoceanic
Sat 12:39:40 AM 30.4000 -139.0167 70° East 503 579 37,000  Level Oakland Oceanic (ODAPS)
Sat 12:40:00 AM 30.3987 -138.9947 70° East 505 581 37,000  Level FlightAware Transoceanic
Sat 12:41:00 AM 30.4476 -138.8396 70° East 505 581 37,000  Level FlightAware Transoceanic
Sat 12:42:00 AM 30.4964 -138.6844 70° East 505 581 37,000  Level FlightAware Transoceanic
Sat 12:43:00 AM 30.5450 -138.5290 70° East 505 581 37,000  Level FlightAware Transoceanic
Sat 12:44:00 AM 30.5934 -138.3735 70° East 505 581 37,000  Level FlightAware Transoceanic
Sat 12:45:00 AM 30.6837 -138.1040 70° East 503 579 37,000  Level FlightAware Transoceanic
Sat 12:46:00 AM 30.7303 -137.9514 70° East 503 579 37,000  Level FlightAware Transoceanic
Sat 12:47:00 AM 30.7768 -137.7987 71° East 503 579 37,000  Level FlightAware Transoceanic
Sat 12:48:00 AM 30.8231 -137.6457 71° East 503 579 37,000  Level FlightAware Transoceanic
Sat 12:49:00 AM 30.8692 -137.4927 71° East 503 579 37,000  Level FlightAware Transoceanic
Sat 12:50:00 AM 30.9151 -137.3395 71° East 503 579 37,000  Level FlightAware Transoceanic
Sat 12:51:00 AM 30.9609 -137.1861 71° East 503 579 37,000  Level FlightAware Transoceanic
Sat 12:52:00 AM 31.0065 -137.0326 71° East 503 579 37,000  Level FlightAware Transoceanic
Sat 12:53:00 AM 31.0519 -136.8790 71° East 503 579 37,000  Level FlightAware Transoceanic
Sat 12:53:31 AM 31.0500 -136.8833 71° East 501 577 37,000  Level Oakland Oceanic (ODAPS)
Sat 12:54:00 AM 31.0971 -136.7252 71° East 503 579 37,000  Level FlightAware Transoceanic
Sat 12:55:00 AM 31.1421 -136.5712 71° East 503 579 37,000  Level FlightAware Transoceanic
Sat 12:56:00 AM 31.1870 -136.4171 71° East 503 579 37,000  Level FlightAware Transoceanic
Sat 12:57:00 AM 31.2316 -136.2629 71° East 503 579 37,000  Level FlightAware Transoceanic
Sat 12:58:00 AM 31.2761 -136.1085 71° East 503 579 37,000  Level FlightAware Transoceanic
Sat 12:59:00 AM 31.3190 -135.9574 71° East 501 577 37,000  Level FlightAware Transoceanic
Sat 01:00:00 AM 31.3631 -135.8025 72° East 501 577 37,000  Level FlightAware Transoceanic
Sat 01:01:00 AM 31.4071 -135.6476 72° East 501 577 37,000  Level FlightAware Transoceanic
Sat 01:02:00 AM 31.4510 -135.4924 72° East 501 577 37,000  Level FlightAware Transoceanic
Sat 01:03:00 AM 31.4946 -135.3372 72° East 501 577 37,000  Level FlightAware Transoceanic
Sat 01:04:00 AM 31.5380 -135.1817 72° East 501 577 37,000  Level FlightAware Transoceanic
Sat 01:05:00 AM 31.5812 -135.0262 72° East 501 577 37,000  Level FlightAware Transoceanic
Sat 01:06:00 AM 31.6243 -134.8705 72° East 501 577 37,000  Level FlightAware Transoceanic
Sat 01:07:00 AM 31.6672 -134.7146 72° East 501 577 37,000  Level FlightAware Transoceanic
Sat 01:07:26 AM 31.6667 -134.7333 72° East 504 580 37,000  Level Oakland Oceanic (ODAPS)
Sat 01:08:00 AM 31.7099 -134.5586 72° East 501 577 37,000  Level FlightAware Transoceanic
Sat 01:09:00 AM 31.7523 -134.4025 72° East 501 577 37,000  Level FlightAware Transoceanic
Sat 01:10:00 AM 31.7946 -134.2462 72° East 501 577 37,000  Level FlightAware Transoceanic
Sat 01:11:00 AM 31.8368 -134.0898 72° East 501 577 37,000  Level FlightAware Transoceanic
Sat 01:12:00 AM 31.8787 -133.9332 73° East 501 577 37,000  Level FlightAware Transoceanic
Sat 01:13:00 AM 31.9202 -133.7859 73° East 504 580 37,000  Level FlightAware Transoceanic
Sat 01:14:00 AM 31.9618 -133.6275 73° East 504 580 37,000  Level FlightAware Transoceanic
Sat 01:15:00 AM 32.0032 -133.4690 73° East 504 580 37,000  Level FlightAware Transoceanic
Sat 01:16:00 AM 32.0443 -133.3103 73° East 504 580 37,000  Level FlightAware Transoceanic
Sat 01:17:00 AM 32.0853 -133.1514 73° East 504 580 37,000  Level FlightAware Transoceanic
Sat 01:18:00 AM 32.1261 -132.9924 73° East 504 580 37,000  Level FlightAware Transoceanic
Sat 01:19:00 AM 32.1667 -132.8333 73° East 504 580 37,000  Level FlightAware Transoceanic
Sat 01:19:29 AM 32.1667 -132.8333 73° East 493 567 37,000  Level Oakland Oceanic (ODAPS)
Sat 01:20:00 AM 32.2057 -132.6815 73° East 504 580 37,000  Level FlightAware Transoceanic
Sat 01:20:00 AM 32.2050 -132.7330 73° East 496 571 37,000  Level ACARS Aircraft Datalink
Sat 01:21:12 AM 32.2333 -132.5667 73° East 491 565 37,000  Level Oakland Oceanic (ODAPS)
Sat 01:23:00 AM 32.3176 -132.2873 73° East  Level FlightAware Approximate
Sat 01:24:00 AM 32.3548 -132.1385 73° East  Level FlightAware Approximate
Sat 01:25:00 AM 32.4026 -131.9023 74° East 493 567 37,000  Level FlightAware Transoceanic
Sat 01:26:00 AM 32.4413 -131.7466 74° East 493 567 37,000  Level FlightAware Transoceanic
Sat 01:27:00 AM 32.4641 -131.6480 74° East 491 565 37,000  Level FlightAware Transoceanic
Sat 01:28:00 AM 32.5020 -131.4944 74° East 491 565 37,000  Level FlightAware Transoceanic
Sat 01:29:00 AM 32.5396 -131.3408 74° East 491 565 37,000  Level FlightAware Transoceanic
Sat 01:30:00 AM 32.5770 -131.1869 74° East 491 565 37,000  Level FlightAware Transoceanic
Sat 01:31:00 AM 32.6143 -131.0330 74° East 491 565 37,000  Level FlightAware Transoceanic
Sat 01:32:00 AM 32.6514 -130.8789 74° East 491 565 37,000  Level FlightAware Transoceanic
Sat 01:33:00 AM 32.6883 -130.7247 74° East 491 565 37,000  Level FlightAware Transoceanic
Sat 01:34:00 AM 32.7249 -130.5704 74° East 491 565 37,000  Level FlightAware Transoceanic
Sat 01:35:00 AM 32.7614 -130.4159 74° East 491 565 37,000  Level FlightAware Transoceanic
Sat 01:35:06 AM 32.7667 -130.4000 74° East 486 559 37,000  Level Oakland Oceanic (ODAPS)
Sat 01:36:00 AM 32.7978 -130.2613 74° East 491 565 37,000  Level FlightAware Transoceanic
Sat 01:37:00 AM 32.8339 -130.1066 75° East 491 565 37,000  Level FlightAware Transoceanic
Sat 01:38:00 AM 32.8698 -129.9518 75° East 491 565 37,000  Level FlightAware Transoceanic
Sat 01:39:00 AM 32.9055 -129.7968 75° East 491 565 37,000  Level FlightAware Transoceanic
Sat 01:40:00 AM 32.9411 -129.6418 75° East 491 565 37,000  Level FlightAware Transoceanic
Sat 01:41:00 AM 32.9807 -129.4733 75° East 486 559 37,000  Level FlightAware Transoceanic
Sat 01:42:00 AM 33.0157 -129.3184 75° East 486 559 37,000  Level FlightAware Transoceanic
Sat 01:43:00 AM 33.0505 -129.1634 75° East 486 559 37,000  Level FlightAware Transoceanic
Sat 01:44:00 AM 33.0851 -129.0082 75° East 486 559 37,000  Level FlightAware Transoceanic
Sat 01:45:00 AM 33.1196 -128.8530 75° East 486 559 37,000  Level FlightAware Transoceanic
Sat 01:46:00 AM 33.1538 -128.6976 75° East 486 559 37,000  Level FlightAware Transoceanic
Sat 01:47:00 AM 33.1879 -128.5421 75° East 486 559 37,000  Level FlightAware Transoceanic
Sat 01:48:00 AM 33.2217 -128.3865 75° East 486 559 37,000  Level FlightAware Transoceanic
Sat 01:49:00 AM 33.2553 -128.2307 76° East 486 559 37,000  Level FlightAware Transoceanic
Sat 01:49:05 AM 33.2500 -128.2500 76° East 488 562 37,000  Level Oakland Oceanic (ODAPS)
Sat 01:50:00 AM 33.2888 -128.0749 76° East 486 559 37,000  Level FlightAware Transoceanic
Sat 01:51:00 AM 33.3221 -127.9189 76° East 486 559 37,000  Level FlightAware Transoceanic
Sat 01:52:00 AM 33.3552 -127.7628 76° East 486 559 37,000  Level FlightAware Transoceanic
Sat 01:53:00 AM 33.3880 -127.6066 76° East 486 559 37,000  Level FlightAware Transoceanic
Sat 01:54:00 AM 33.4207 -127.4503 76° East 486 559 37,000  Level FlightAware Transoceanic
Sat 01:55:00 AM 33.4495 -127.3076 76° East 488 562 37,000  Level FlightAware Transoceanic
Sat 01:56:00 AM 33.4820 -127.1502 76° East 488 562 37,000  Level FlightAware Transoceanic
Sat 01:57:00 AM 33.5144 -126.9926 76° East 488 562 37,000  Level FlightAware Transoceanic
Sat 01:58:00 AM 33.5465 -126.8349 76° East 488 562 37,000  Level FlightAware Transoceanic
Sat 01:59:00 AM 33.5785 -126.6770 76° East 488 562 37,000  Level FlightAware Transoceanic
Sat 02:00:00 AM 33.6102 -126.5191 76° East 488 562 37,000  Level FlightAware Transoceanic
Sat 02:01:00 AM 33.6418 -126.3610 77° East 488 562 37,000  Level FlightAware Transoceanic
Sat 02:02:00 AM 33.6731 -126.2029 77° East 488 562 37,000  Level FlightAware Transoceanic
Sat 02:02:53 AM 33.7000 -126.0667 77° East 481 554 37,000  Level Oakland Oceanic (ODAPS)
Sat 02:03:00 AM 33.7043 -126.0446 77° East 488 562 37,000  Level FlightAware Transoceanic
Sat 02:04:00 AM 33.7352 -125.8861 77° East 488 562 37,000  Level FlightAware Transoceanic
Sat 02:05:00 AM 33.7660 -125.7276 77° East 488 562 37,000  Level FlightAware Transoceanic
Sat 02:06:00 AM 33.7965 -125.5690 77° East 488 562 37,000  Level FlightAware Transoceanic
Sat 02:07:00 AM 33.8269 -125.4102 77° East 488 562 37,000  Level FlightAware Transoceanic
Sat 02:08:00 AM 33.8570 -125.2514 77° East 488 562 37,000  Level FlightAware Transoceanic
Sat 02:09:00 AM 33.8863 -125.0956 77° East 481 554 37,000  Level FlightAware Transoceanic
Sat 02:10:00 AM 33.9167 -124.9333 77° East 481 554 37,000  Level FlightAware Transoceanic
Sat 02:10:00 AM 33.9360 -124.8760 77° East 477 549 37,000  Level ACARS Aircraft Datalink
Sat 02:10:51 AM 33.9256 -124.8114 77° East 476 548 37,000  Level Los Angeles Center
Sat 02:11:52 AM 33.9564 -124.6578 76° East 474 545 37,000  Level Los Angeles Center
Sat 02:13:05 AM 33.9728 -124.5017 83° East 469 540 37,000  Level Los Angeles Center
Sat 02:14:06 AM 33.9711 -124.2806 90° East 470 541 37,000  Level Los Angeles Center
Sat 02:15:07 AM 33.9703 -124.1239 90° East 470 541 37,000  Level Los Angeles Center
Sat 02:16:08 AM 33.9722 -123.9669 89° East 469 540 37,000  Level Los Angeles Center
Sat 02:17:09 AM 33.9703 -123.8106 91° East 468 539 37,000  Level Los Angeles Center
Sat 02:18:10 AM 33.9733 -123.6544 89° East 469 540 37,000  Level Los Angeles Center
Sat 02:19:11 AM 33.9683 -123.4956 92° East 471 542 37,000  Level Los Angeles Center
Sat 02:20:12 AM 33.9678 -123.3386 90° East 471 542 37,000  Level Los Angeles Center
Sat 02:21:13 AM 33.9700 -123.1828 89° East 469 540 37,000  Level Los Angeles Center
Sat 02:22:13 AM 33.9661 -123.0244 92° East 471 542 37,000  Level Los Angeles Center
Sat 02:28:07 AM 33.9580 -122.0900 92° East 469 540 37,000  Level FlightAware ADS-B
Sat 02:28:52 AM 33.9560 -121.9910 91° East 468 539 37,000  Level FlightAware ADS-B
Sat 02:29:28 AM 33.9550 -121.9110 91° East 468 539 37,000  Level FlightAware ADS-B
Sat 02:30:04 AM 33.9540 -121.8310 91° East 468 539 37,000  Level FlightAware ADS-B
Sat 02:31:28 AM 33.9510 -121.6440 91° East 468 539 37,000  Level FlightAware ADS-B
Sat 02:32:04 AM 33.9500 -121.5650 91° East 468 539 37,000  Level FlightAware ADS-B
Sat 02:32:53 AM 33.9490 -121.4560 91° East 468 539 37,000  Level FlightAware ADS-B
Sat 02:33:29 AM 33.9470 -121.3760 92° East 468 539 37,000  Level FlightAware ADS-B
Sat 02:34:05 AM 33.9460 -121.2960 91° East 468 539 37,000  Level FlightAware ADS-B
Sat 02:34:53 AM 33.9450 -121.1900 91° East 468 539 37,000  Level FlightAware ADS-B
Sat 02:35:41 AM 33.9430 -121.0830 91° East 468 539 37,000  Level FlightAware ADS-B
Sat 02:36:18 AM 33.9420 -121.0010 91° East 468 539 37,000  Level FlightAware ADS-B
Sat 02:37:17 AM 33.9250 -120.6730 93° East 463 533 37,000  Level FlightAware ADS-B
Sat 02:37:54 AM 33.9230 -120.5920 92° East 463 533 37,000  Level FlightAware ADS-B
Sat 02:38:42 AM 33.9200 -120.4870 92° East 463 533 37,000  Level FlightAware ADS-B
Sat 02:39:18 AM 33.9180 -120.4080 92° East 463 533 37,000  Level FlightAware ADS-B
Sat 02:40:00 AM 33.9120 -120.2480 93° East 466 536 37,000  Level FlightAware ADS-B
Sat 02:40:41 AM 33.9080 -120.1430 93° East 466 536 37,000  Level FlightAware ADS-B
Sat 02:41:50 AM 33.9020 -119.9790 92° East 466 536 37,000  Level FlightAware ADS-B
Sat 02:42:32 AM 33.8970 -119.8600 93° East 466 536 37,000  Level FlightAware ADS-B
Sat 02:43:14 AM 33.8940 -119.7640 92° East 466 536 37,000  Level FlightAware ADS-B
Sat 02:43:57 AM 33.8880 -119.6390 93° East 465 535 37,000  Level FlightAware ADS-B
Sat 02:44:37 AM 33.8840 -119.5330 93° East 466 536 37,000  Level FlightAware ADS-B
Sat 02:45:18 AM 33.8800 -119.4290 93° East 466 536 37,000  Level FlightAware ADS-B
Sat 02:45:59 AM 33.8750 -119.3220 93° East 466 536 37,000  Level FlightAware ADS-B
Sat 02:46:41 AM 33.8700 -119.2110 93° East 465 535 37,000  Level FlightAware ADS-B
Sat 02:47:25 AM 33.8650 -119.0970 93° East 465 535 37,000  Level FlightAware ADS-B
Sat 02:48:07 AM 33.8600 -118.9910 93° East 465 535 37,000  Level FlightAware ADS-B
Sat 02:48:51 AM 33.8540 -118.8770 94° East 464 534 37,000  Level FlightAware ADS-B
Sat 02:49:23 AM 33.8500 -118.7950 93° East 463 533 37,000  Level FlightAware ADS-B
Sat 02:50:07 AM 33.8450 -118.6840 93° East 464 534 37,000  Level FlightAware ADS-B
Sat 02:50:47 AM 33.8390 -118.5780 94° East 463 533 37,000  Level FlightAware ADS-B
Sat 02:51:31 AM 33.8330 -118.4650 94° East 462 532 37,000  Level FlightAware ADS-B
Sat 02:52:11 AM 33.8280 -118.3630 93° East 462 532 37,000  Level FlightAware ADS-B
Sat 02:52:53 AM 33.8220 -118.2590 94° East 462 532 37,000  Level FlightAware ADS-B
Sat 02:53:37 AM 33.8160 -118.1430 94° East 462 532 37,000  Level FlightAware ADS-B
Sat 02:54:10 AM 33.8110 -118.0620 94° East 461 531 37,000  Level FlightAware ADS-B
Sat 02:54:53 AM 33.8050 -117.9470 94° East 460 529 37,000  Level FlightAware ADS-B
Sat 02:55:35 AM 33.7990 -117.8420 94° East 459 528 37,000  Level FlightAware ADS-B
Sat 02:56:13 AM 33.7930 -117.7440 94° East 458 527 37,000  Level FlightAware ADS-B
Sat 02:56:58 AM 33.7870 -117.6330 94° East 457 526 37,000  Level FlightAware ADS-B
Sat 02:57:43 AM 33.7780 -117.5190 95° East 454 522 37,000  Level FlightAware ADS-B
Sat 02:58:23 AM 33.7700 -117.4190 95° East 454 522 37,000  Level FlightAware ADS-B
Sat 02:59:07 AM 33.7600 -117.3070 96° East 453 521 37,000  Level FlightAware ADS-B
Sat 02:59:47 AM 33.7520 -117.2110 96° East 452 520 37,000  Level FlightAware ADS-B
Sat 03:00:27 AM 33.7430 -117.1070 96° East 451 519 37,000  Level FlightAware ADS-B
Sat 03:01:12 AM 33.7340 -116.9970 96° East 450 518 37,000  Level FlightAware ADS-B
Sat 03:01:51 AM 33.7250 -116.9030 97° East 449 517 37,000  Level FlightAware ADS-B
Sat 03:02:36 AM 33.7150 -116.7890 96° East 449 517 37,000  Level FlightAware ADS-B
Sat 03:03:16 AM 33.7060 -116.6900 96° East 449 517 37,000  Level FlightAware ADS-B
Sat 03:04:00 AM 33.6970 -116.5810 96° East 449 517 37,000  Level FlightAware ADS-B
Sat 03:04:40 AM 33.6880 -116.4820 96° East 449 517 37,000  Level FlightAware ADS-B
Sat 03:05:22 AM 33.6780 -116.3790 97° East 448 516 37,000  Level FlightAware ADS-B
Sat 03:06:00 AM 33.6700 -116.2840 96° East 448 516 37,000  Level FlightAware ADS-B
Sat 03:06:33 AM 33.6630 -116.2120 97° East 448 516 37,000  Level FlightAware ADS-B
Sat 03:07:22 AM 33.6540 -116.1090 96° East 448 516 37,000  Level FlightAware ADS-B
Sat 03:07:58 AM 33.6470 -116.0330 96° East 448 516 37,000  Level FlightAware ADS-B
Sat 03:08:34 AM 33.6410 -115.9570 95° East 448 516 37,000  Level FlightAware ADS-B
Sat 03:09:22 AM 33.6320 -115.8560 96° East 448 516 37,000  Level FlightAware ADS-B
Sat 03:09:58 AM 33.6250 -115.7810 96° East 448 516 37,000  Level FlightAware ADS-B
Sat 03:10:46 AM 33.6170 -115.6800 95° East 448 516 37,000  Level FlightAware ADS-B
Sat 03:11:23 AM 33.6100 -115.6020 96° East 448 516 37,000  Level FlightAware ADS-B
Sat 03:12:05 AM 33.6020 -115.5130 96° East 448 516 37,000  Level FlightAware ADS-B
Sat 03:12:54 AM 33.5930 -115.4100 96° East 448 516 37,000  Level FlightAware ADS-B
Sat 03:13:18 AM 33.5880 -115.3600 97° East 448 516 37,000  Level FlightAware ADS-B
Sat 03:14:06 AM 33.5800 -115.2590 95° East 448 516 37,000  Level FlightAware ADS-B
Sat 03:15:28 AM 33.5640 -115.0870 96° East 448 516 37,000  Level FlightAware ADS-B
Sat 03:16:04 AM 33.5580 -115.0110 95° East 448 516 37,000 -1,886 Level FlightAware ADS-B
Sat 03:17:13 AM 33.5211 -114.6322 95° East 459 528 33,700 -2,769 Descending Albuquerque Center
Sat 03:18:14 AM 33.5061 -114.4778 97° East 466 536 31,000 -2,529 Descending Albuquerque Center
Sat 03:19:14 AM 33.4897 -114.3244 97° East 465 535 28,600 -2,380 Descending Albuquerque Center
Sat 03:20:15 AM 33.4742 -114.1781 97° East 451 519 26,200 -1,785 Descending Albuquerque Center
Sat 03:21:15 AM 33.4625 -114.0333 95° East 440 506 25,000 -600 Descending Albuquerque Center
Sat 03:22:15 AM 33.4619 -113.8894 90° East 433 498 25,000  Level Albuquerque Center
Sat 03:23:16 AM 33.4614 -113.7453 90° East 433 498 25,000  Level Albuquerque Center
Sat 03:24:16 AM 33.4611 -113.6000 90° East 435 501 25,000 -900 Level Albuquerque Center
Sat 03:25:16 AM 33.4597 -113.4578 91° East 431 496 23,200 -2,033 Descending Albuquerque Center
Sat 03:26:17 AM 33.4583 -113.3197 91° East 419 482 20,900 -2,096 Descending Albuquerque Center
Sat 03:31:31 AM 33.4430 -112.6550 91° East 334 384 10,100 -1,836 Descending FlightAware ADS-B
Sat 03:32:10 AM 33.4430 -112.5930 90° East 334 384 10,100 -265 Level FlightAware ADS-B
Sat 03:32:39 AM 33.4420 -112.5400 91° East 277 319 9,800 -393 Descending FlightAware ADS-B
Sat 03:33:11 AM 33.4420 -112.4980 90° East 275 316 9,700 -1,607 Descending FlightAware ADS-B
Sat 03:33:35 AM 33.4410 -112.4590 92° East 259 298 8,300 -2,418 Descending FlightAware ADS-B
Sat 03:34:18 AM 33.4410 -112.3980 90° East 261 300 7,000 -1,583 Descending FlightAware ADS-B
Sat 03:34:47 AM 33.4400 -112.3550 92° East 261 300 6,400 -1,158 Descending FlightAware ADS-B
Sat 03:35:15 AM 33.4390 -112.3160 92° East 259 298 5,900 -1,200 Descending FlightAware ADS-B
Sat 03:35:42 AM 33.4380 -112.2770 92° East 252 290 5,300 -1,500 Descending FlightAware ADS-B
Sat 03:36:11 AM 33.4370 -112.2370 92° East 233 268 4,500 -1,814 Descending FlightAware ADS-B
Sat 03:36:25 AM 33.4370 -112.2190 90° East 228 262 4,000 -1,263 Descending FlightAware ADS-B
Sat 03:36:49 AM 33.4380 -112.1910 88° East 209 241 3,700 -923 Descending FlightAware ADS-B
Sat 03:37:04 AM 33.4380 -112.1740 90° East 201 231 3,400 -1,125 Descending FlightAware ADS-B
Sat 03:37:37 AM 33.4390 -112.1400 88° East 174 200 2,800 -1,067 Descending FlightAware ADS-B
Sat 03:37:49 AM 33.4390 -112.1290 90° East 163 188 2,600 -833 Descending FlightAware ADS-B
Sat 03:38:13 AM 33.4390 -112.1080 90° East 149 171 2,300 -750 Descending FlightAware ADS-B
Sat 03:38:37 AM 33.4400 -112.0890 86° East 145 167 2,000 -692 Descending FlightAware ADS-B
Sat 03:39:05 AM 33.4400 -112.0670 90° East 144 166 1,700 -682 Descending FlightAware ADS-B
Sat 03:39:21 AM 33.4400 -112.0530 90° East 144 166 1,500 -414 Descending FlightAware ADS-B
Sat 03:40:03 AM 33.4410 -112.0230 88° East 143 165 1,300 -286 Descending FlightAware ADS-B

Login

Don't have an account? Register now (free) for customized features, flight alerts, and more!